Time;durP1;ratioP1;P1;durP2;ratioP2;P2;SDS_P1;SDS_P2;PMS_P1;PMS_P2;Temp;Humidity;BMP_temperature;BMP_pressure;BME280_temperature;BME280_humidity;BME280_pressure;Samples;Min_cycle;Max_cycle;Signal;HPM_P1;HPM_P2
2022/12/31 00:01:18;;;;;;;58.67;27.67;;;3.60;99.90;;;;;;5053287;28;20215;-84
2022/12/31 00:03:46;;;;;;;58.10;27.30;;;3.60;99.90;;;;;;5035644;28;20194;-85
2022/12/31 00:06:15;;;;;;;54.40;27.80;;;3.50;99.90;;;;;;5035430;28;20562;-82
2022/12/31 00:08:44;;;;;;;50.53;26.33;;;3.50;99.90;;;;;;5051293;28;20244;-84
2022/12/31 00:11:14;;;;;;;56.60;26.97;;;3.50;99.90;;;;;;5066781;28;20214;-85
2022/12/31 00:13:42;;;;;;;52.97;26.87;;;3.50;99.90;;;;;;5071926;28;20317;-84
2022/12/31 00:16:16;;;;;;;54.50;26.73;;;3.50;99.90;;;;;;5055067;28;20206;-79
2022/12/31 00:18:48;;;;;;;54.63;26.70;;;3.50;99.90;;;;;;5071890;28;20217;-85
2022/12/31 00:21:17;;;;;;;55.73;26.67;;;3.50;99.90;;;;;;5071500;28;20210;-83
2022/12/31 00:23:44;;;;;;;55.03;26.80;;;3.50;99.90;;;;;;5054921;28;20221;-85
2022/12/31 00:26:14;;;;;;;52.63;25.63;;;3.40;99.90;;;;;;5063755;28;20320;-86
2022/12/31 00:28:43;;;;;;;54.80;26.70;;;3.40;99.90;;;;;;5055214;28;20204;-84
2022/12/31 00:31:14;;;;;;;52.63;25.97;;;3.40;99.90;;;;;;5054986;28;20222;-86
2022/12/31 00:33:42;;;;;;;54.93;26.07;;;3.30;99.90;;;;;;5050612;28;20218;-87
2022/12/31 00:36:13;;;;;;;55.33;25.97;;;3.30;99.90;;;;;;5055399;28;20202;-85
2022/12/31 00:38:42;;;;;;;55.33;25.87;;;3.20;99.90;;;;;;5055296;28;20234;-85
2022/12/31 00:41:10;;;;;;;53.03;25.70;;;3.20;99.90;;;;;;5055886;28;20191;-84
2022/12/31 00:43:37;;;;;;;47.87;24.57;;;3.20;99.90;;;;;;5062839;28;20199;-83
2022/12/31 00:46:06;;;;;;;55.93;26.63;;;3.20;99.90;;;;;;5078615;28;20194;-84
2022/12/31 00:48:34;;;;;;;52.00;25.77;;;3.20;99.90;;;;;;5055155;28;20212;-82
2022/12/31 00:51:04;;;;;;;53.23;25.57;;;3.20;99.90;;;;;;5055645;28;20197;-85
2022/12/31 00:53:34;;;;;;;55.37;25.90;;;3.30;99.90;;;;;;5054773;28;20218;-80
2022/12/31 00:56:06;;;;;;;48.57;24.80;;;3.30;99.90;;;;;;5043545;28;20199;-83
2022/12/31 00:58:34;;;;;;;50.33;24.23;;;3.20;99.90;;;;;;5035083;28;20211;-80
2022/12/31 01:01:21;;;;;;;51.43;24.70;;;3.30;99.90;;;;;;5019097;28;20203;-79
2022/12/31 01:03:51;;;;;;;46.00;24.23;;;3.20;99.90;;;;;;5052662;28;20519;-81
2022/12/31 01:06:19;;;;;;;47.80;24.00;;;3.20;99.90;;;;;;5052658;28;20220;-80
2022/12/31 01:08:48;;;;;;;45.67;23.37;;;3.20;99.90;;;;;;5052404;28;20202;-84
2022/12/31 01:11:18;;;;;;;47.77;24.17;;;3.20;99.90;;;;;;5034497;28;20194;-80
2022/12/31 01:14:15;;;;;;;47.03;23.40;;;3.20;99.90;;;;;;5051522;28;20251;-81
2022/12/31 01:16:51;;;;;;;48.93;22.53;;;3.20;99.90;;;;;;5042419;28;20231;-82
2022/12/31 01:19:27;;;;;;;44.80;22.03;;;3.30;99.90;;;;;;5070833;28;20186;-80
2022/12/31 01:21:55;;;;;;;46.33;22.77;;;3.30;99.90;;;;;;5055638;28;20198;-81
2022/12/31 01:24:23;;;;;;;47.23;23.07;;;3.30;99.90;;;;;;5055757;28;20189;-82
2022/12/31 01:26:51;;;;;;;47.80;21.87;;;3.30;99.90;;;;;;5038069;28;20207;-82
2022/12/31 01:29:24;;;;;;;44.93;22.50;;;3.30;99.90;;;;;;5038155;28;20278;-84
2022/12/31 01:31:51;;;;;;;42.50;21.83;;;3.30;99.90;;;;;;5021619;28;20229;-84
2022/12/31 01:34:18;;;;;;;48.23;22.13;;;3.40;99.90;;;;;;5037804;28;20317;-80
2022/12/31 01:36:49;;;;;;;44.50;22.17;;;3.50;99.90;;;;;;5055851;28;20183;-83
2022/12/31 01:39:16;;;;;;;47.30;22.20;;;3.40;99.90;;;;;;5024905;28;20240;-87
2022/12/31 01:41:46;;;;;;;46.57;22.03;;;3.40;99.90;;;;;;5041695;28;20230;-82
2022/12/31 01:44:22;;;;;;;41.53;21.20;;;3.40;99.90;;;;;;5057827;28;20187;-82
2022/12/31 01:46:57;;;;;;;44.63;22.00;;;3.40;99.90;;;;;;5041277;28;20221;-81
2022/12/31 01:49:40;;;;;;;42.03;20.60;;;3.40;99.90;;;;;;5037838;28;20210;-81
2022/12/31 01:52:19;;;;;;;43.73;20.67;;;3.50;99.90;;;;;;5055343;28;20702;-86
2022/12/31 01:54:53;;;;;;;41.33;20.33;;;3.50;99.90;;;;;;5061291;28;20576;-82
2022/12/31 01:57:22;;;;;;;39.43;20.50;;;3.70;99.90;;;;;;5038049;28;20466;-86
2022/12/31 01:59:51;;;;;;;42.63;21.10;;;3.60;99.90;;;;;;5037576;28;20261;-81
2022/12/31 02:02:18;;;;;;;38.60;19.80;;;3.60;99.90;;;;;;5037942;28;20198;-83
2022/12/31 02:04:47;;;;;;;35.83;19.00;;;3.60;99.90;;;;;;5055381;28;20218;-84
2022/12/31 02:07:15;;;;;;;39.57;20.07;;;3.70;99.90;;;;;;5037472;28;20287;-80
2022/12/31 02:09:42;;;;;;;37.43;19.90;;;3.70;99.90;;;;;;5055357;28;20202;-82
2022/12/31 02:12:12;;;;;;;41.67;19.80;;;3.70;99.90;;;;;;5053896;28;20292;-85
2022/12/31 02:14:42;;;;;;;37.83;19.60;;;3.70;99.90;;;;;;5036795;28;20237;-83
2022/12/31 02:17:22;;;;;;;36.80;19.93;;;3.70;99.90;;;;;;5037711;28;20199;-82
2022/12/31 02:20:20;;;;;;;36.27;18.27;;;3.70;99.90;;;;;;5054426;28;20209;-81
2022/12/31 02:22:59;;;;;;;36.23;17.90;;;3.80;99.90;;;;;;5056313;28;20672;-81
2022/12/31 02:25:48;;;;;;;35.20;18.27;;;3.80;99.90;;;;;;5038735;28;20183;-81
2022/12/31 02:28:34;;;;;;;33.87;16.73;;;3.80;99.90;;;;;;5059985;28;20183;-86
2022/12/31 02:31:20;;;;;;;32.87;16.63;;;3.90;99.90;;;;;;5053955;28;20225;-87
2022/12/31 02:33:59;;;;;;;30.77;16.00;;;3.90;99.90;;;;;;5048224;28;20235;-84
2022/12/31 02:36:31;;;;;;;30.67;15.80;;;4.00;99.90;;;;;;5058658;28;20705;-86
2022/12/31 02:39:09;;;;;;;30.93;15.77;;;4.20;99.90;;;;;;5057617;28;20233;-87
2022/12/31 02:41:49;;;;;;;30.00;15.60;;;4.10;99.90;;;;;;5047735;28;20196;-88
2022/12/31 02:44:28;;;;;;;29.33;14.63;;;4.20;99.90;;;;;;5049944;28;20190;-86
2022/12/31 02:47:01;;;;;;;26.57;14.03;;;4.30;99.90;;;;;;5068736;28;20214;-86
2022/12/31 02:49:37;;;;;;;26.40;14.07;;;4.30;99.90;;;;;;5053712;28;20543;-87
2022/12/31 02:52:14;;;;;;;27.43;13.90;;;4.40;99.90;;;;;;5054539;28;20202;-84
2022/12/31 02:54:57;;;;;;;25.67;12.83;;;4.40;99.90;;;;;;5072868;28;20265;-87
2022/12/31 02:57:36;;;;;;;25.30;12.73;;;4.60;99.90;;;;;;5061883;28;20198;-84
2022/12/31 03:02:53;;;;;;;25.70;13.27;;;4.70;99.90;;;;;;5054723;28;20604;-84
2022/12/31 03:05:25;;;;;;;25.33;12.20;;;4.70;99.90;;;;;;5062790;28;20191;-85
2022/12/31 03:07:55;;;;;;;24.33;12.97;;;4.70;99.90;;;;;;5057012;28;20186;-83
2022/12/31 03:10:22;;;;;;;26.13;13.30;;;4.80;99.90;;;;;;5064350;28;20605;-85
2022/12/31 03:12:53;;;;;;;27.23;13.10;;;4.80;99.90;;;;;;5056194;28;20281;-86
2022/12/31 03:15:38;;;;;;;23.13;12.07;;;4.80;99.90;;;;;;5051372;28;20191;-90
2022/12/31 03:22:26;;;;;;;21.80;11.70;;;4.80;99.90;;;;;;5054446;28;20187;-89
2022/12/31 03:26:47;;;;;;;23.07;12.37;;;4.80;99.90;;;;;;5053912;28;20190;-84
2022/12/31 03:29:13;;;;;;;24.30;12.33;;;4.80;99.90;;;;;;5036457;28;20685;-84
2022/12/31 03:31:41;;;;;;;23.97;13.03;;;4.90;99.90;;;;;;5041250;28;20278;-86
2022/12/31 03:34:08;;;;;;;23.30;11.83;;;4.90;99.90;;;;;;5053823;28;20692;-85
2022/12/31 03:36:35;;;;;;;21.37;11.27;;;4.90;99.90;;;;;;5053882;28;20198;-85
2022/12/31 03:39:02;;;;;;;23.30;12.03;;;5.00;99.90;;;;;;5054249;28;20221;-86
2022/12/31 03:41:30;;;;;;;23.80;12.27;;;5.00;99.90;;;;;;5054073;28;20201;-85
2022/12/31 03:43:57;;;;;;;20.00;11.23;;;5.10;99.90;;;;;;5036126;28;20205;-84
2022/12/31 03:46:24;;;;;;;22.53;11.40;;;5.10;99.90;;;;;;5035581;28;20767;-85
2022/12/31 03:48:51;;;;;;;21.13;11.43;;;5.20;99.90;;;;;;5056093;28;20617;-85
2022/12/31 03:51:18;;;;;;;19.77;11.47;;;5.20;99.90;;;;;;5057647;28;20193;-83
2022/12/31 03:53:45;;;;;;;20.33;11.73;;;5.20;99.90;;;;;;5077111;28;20303;-84
2022/12/31 03:56:12;;;;;;;22.30;12.00;;;5.20;99.90;;;;;;5078867;28;20199;-84
2022/12/31 03:58:39;;;;;;;21.37;11.57;;;5.30;99.90;;;;;;5055667;28;20194;-84
2022/12/31 04:01:06;;;;;;;20.87;11.90;;;5.30;99.90;;;;;;5055846;28;20182;-85
2022/12/31 04:03:34;;;;;;;18.73;10.90;;;5.30;99.90;;;;;;5045908;28;20203;-83
2022/12/31 04:06:01;;;;;;;22.93;11.27;;;5.40;99.90;;;;;;5073255;28;20537;-86
2022/12/31 04:08:28;;;;;;;20.40;10.73;;;5.50;99.90;;;;;;5052905;28;20199;-85
2022/12/31 04:10:55;;;;;;;20.73;11.67;;;5.50;99.90;;;;;;5036032;28;20299;-84
2022/12/31 04:13:22;;;;;;;21.00;11.47;;;5.50;99.90;;;;;;5035357;28;20626;-83
2022/12/31 04:15:50;;;;;;;20.03;11.37;;;5.60;99.90;;;;;;5054921;28;20332;-85
2022/12/31 04:18:21;;;;;;;22.53;10.83;;;5.70;99.90;;;;;;5055285;28;20198;-81
2022/12/31 04:20:51;;;;;;;19.93;11.07;;;5.60;99.90;;;;;;5055228;28;20197;-88
2022/12/31 04:23:18;;;;;;;20.43;10.77;;;5.60;99.90;;;;;;5055451;28;20204;-85
2022/12/31 04:25:46;;;;;;;18.23;10.17;;;5.70;99.90;;;;;;5055819;28;20174;-86
2022/12/31 04:28:16;;;;;;;19.50;10.67;;;5.70;99.90;;;;;;5038897;28;20202;-87
2022/12/31 04:30:43;;;;;;;21.00;11.63;;;5.60;99.90;;;;;;5055516;28;20216;-86
2022/12/31 04:33:13;;;;;;;22.20;11.13;;;5.70;99.90;;;;;;5072929;28;20189;-87
2022/12/31 04:35:40;;;;;;;21.90;10.83;;;5.70;99.90;;;;;;5039043;28;20232;-86
2022/12/31 04:38:07;;;;;;;19.37;10.53;;;5.70;99.90;;;;;;5071842;28;20228;-86
2022/12/31 04:41:15;;;;;;;20.50;11.00;;;5.70;99.90;;;;;;5059035;28;20661;-87
2022/12/31 04:43:22;;;;;;;19.80;10.73;;;5.70;99.90;;;;;;5071961;28;20200;-86
2022/12/31 04:45:49;;;;;;;19.67;10.43;;;5.70;99.90;;;;;;5055115;28;20200;-85
2022/12/31 04:48:16;;;;;;;17.90;9.70;;;5.80;99.90;;;;;;5072975;28;20195;-87
2022/12/31 04:50:46;;;;;;;20.37;11.07;;;5.80;99.90;;;;;;5072276;28;20194;-86
2022/12/31 04:53:15;;;;;;;20.50;11.03;;;5.80;99.90;;;;;;5055885;28;20678;-87
2022/12/31 04:55:42;;;;;;;20.27;10.97;;;5.70;99.90;;;;;;5062509;28;20191;-87
2022/12/31 04:58:09;;;;;;;20.87;10.87;;;5.80;99.90;;;;;;5058906;28;20223;-86
2022/12/31 05:00:36;;;;;;;20.60;11.33;;;5.80;99.90;;;;;;5077643;28;20192;-88
2022/12/31 05:03:03;;;;;;;21.57;11.00;;;5.80;99.90;;;;;;5073283;28;20251;-88
2022/12/31 05:05:31;;;;;;;21.13;10.83;;;5.80;99.90;;;;;;5038827;28;20191;-85
2022/12/31 05:07:58;;;;;;;21.60;11.87;;;5.70;99.90;;;;;;5039077;28;20673;-85
2022/12/31 05:10:25;;;;;;;19.43;10.40;;;5.90;99.90;;;;;;5040323;28;20200;-85
2022/12/31 05:12:52;;;;;;;18.00;10.40;;;5.90;99.90;;;;;;5067380;28;20206;-84
2022/12/31 05:15:19;;;;;;;24.37;11.50;;;5.90;99.90;;;;;;5044593;28;20239;-84
2022/12/31 05:17:46;;;;;;;21.17;11.00;;;5.90;99.90;;;;;;5058212;28;20213;-84
2022/12/31 05:20:13;;;;;;;19.70;11.27;;;5.90;99.90;;;;;;5055297;28;20193;-84
2022/12/31 05:22:40;;;;;;;19.50;10.83;;;5.90;99.90;;;;;;5063316;28;20191;-83
2022/12/31 05:25:08;;;;;;;21.40;11.50;;;6.00;99.90;;;;;;5038834;28;20616;-84
2022/12/31 05:27:36;;;;;;;21.33;11.30;;;6.00;99.90;;;;;;5066139;28;20205;-85
2022/12/31 05:30:05;;;;;;;21.47;11.00;;;6.00;99.90;;;;;;5058013;28;20233;-85
2022/12/31 05:32:33;;;;;;;20.63;11.53;;;6.10;99.90;;;;;;5076766;28;20550;-85
2022/12/31 05:35:00;;;;;;;22.47;11.10;;;6.10;99.90;;;;;;5057979;28;20231;-84
2022/12/31 05:37:28;;;;;;;19.93;10.87;;;6.10;99.90;;;;;;5057925;28;20284;-84
2022/12/31 05:39:55;;;;;;;19.90;10.87;;;6.10;99.90;;;;;;5054588;28;20209;-84
2022/12/31 05:42:22;;;;;;;20.47;11.20;;;6.20;99.90;;;;;;5047520;28;20558;-84
2022/12/31 05:44:49;;;;;;;22.03;11.43;;;6.20;99.90;;;;;;5037852;28;20225;-85
2022/12/31 05:47:17;;;;;;;22.20;11.30;;;6.20;99.90;;;;;;5056749;28;20657;-85
2022/12/31 05:49:44;;;;;;;23.67;12.10;;;6.30;99.90;;;;;;5038424;28;20192;-85
2022/12/31 05:52:23;;;;;;;23.37;11.67;;;6.30;99.90;;;;;;5058516;28;20266;-84
2022/12/31 05:54:50;;;;;;;23.43;11.83;;;6.40;99.90;;;;;;5045012;28;20219;-85
2022/12/31 05:57:17;;;;;;;21.97;12.07;;;6.40;99.90;;;;;;5058344;28;20197;-85
2022/12/31 05:59:45;;;;;;;24.47;12.10;;;6.40;99.90;;;;;;5058488;28;20179;-85
2022/12/31 06:02:12;;;;;;;21.33;12.07;;;6.40;99.90;;;;;;5057876;28;20204;-84
2022/12/31 06:04:39;;;;;;;23.03;12.30;;;6.40;99.90;;;;;;5057637;28;20194;-85
2022/12/31 06:07:06;;;;;;;25.80;12.60;;;6.40;99.90;;;;;;5074402;28;20211;-83
2022/12/31 06:09:33;;;;;;;22.43;11.70;;;6.50;99.90;;;;;;5060162;28;20290;-85
2022/12/31 06:12:00;;;;;;;22.57;12.50;;;6.50;99.90;;;;;;5056550;28;20188;-86
2022/12/31 06:14:27;;;;;;;22.73;12.27;;;6.60;99.90;;;;;;5055603;28;20216;-85
2022/12/31 06:16:54;;;;;;;23.63;12.30;;;6.60;99.90;;;;;;5055558;28;20199;-85
2022/12/31 06:19:21;;;;;;;22.37;12.23;;;6.70;99.90;;;;;;5054676;28;20600;-85
2022/12/31 06:21:49;;;;;;;22.80;12.07;;;6.70;99.90;;;;;;5037851;28;20200;-85
2022/12/31 06:24:21;;;;;;;22.90;11.77;;;6.80;99.90;;;;;;5055594;28;20207;-85
2022/12/31 06:26:49;;;;;;;22.53;11.87;;;6.80;99.90;;;;;;5055116;28;20208;-88
2022/12/31 06:29:16;;;;;;;23.67;12.20;;;6.90;99.90;;;;;;5055392;28;20233;-87
2022/12/31 06:31:46;;;;;;;24.83;12.40;;;6.90;99.90;;;;;;5037562;28;20647;-86
2022/12/31 06:34:13;;;;;;;22.43;11.67;;;7.10;99.90;;;;;;5036912;28;20731;-87
2022/12/31 06:36:41;;;;;;;23.27;11.57;;;6.90;99.90;;;;;;5037416;28;20301;-86
2022/12/31 06:39:16;;;;;;;22.70;12.20;;;7.00;99.90;;;;;;5056436;28;20310;-92
2022/12/31 06:42:11;;;;;;;25.83;11.90;;;7.10;99.90;;;;;;5056521;28;20201;-89
2022/12/31 06:45:04;;;;;;;21.50;11.57;;;7.00;99.90;;;;;;5056124;28;20187;-88
2022/12/31 06:48:11;;;;;;;20.97;11.67;;;7.10;99.90;;;;;;5038546;28;20198;-89
2022/12/31 06:51:14;;;;;;;22.70;11.67;;;7.20;99.90;;;;;;5037079;28;20200;-88
2022/12/31 06:54:12;;;;;;;22.70;11.20;;;7.10;99.90;;;;;;4983057;28;20228;-86
2022/12/31 06:57:22;;;;;;;20.57;11.13;;;7.20;99.90;;;;;;4974121;28;20208;-88
2022/12/31 07:00:30;;;;;;;20.93;11.03;;;7.20;99.90;;;;;;4987084;28;20197;-88
2022/12/31 07:04:01;;;;;;;19.87;10.80;;;7.30;99.90;;;;;;4971606;28;20626;-86
2022/12/31 07:07:28;;;;;;;21.73;10.47;;;7.20;99.90;;;;;;4986943;28;20589;-87
2022/12/31 07:10:37;;;;;;;22.30;10.53;;;7.40;99.90;;;;;;4940973;29;20651;-81
2022/12/31 07:13:05;;;;;;;22.57;11.00;;;7.40;99.90;;;;;;4934890;29;20210;-83
2022/12/31 07:16:26;;;;;;;18.67;10.33;;;7.50;99.90;;;;;;4919282;29;20233;-85
2022/12/31 07:19:16;;;;;;;21.13;10.60;;;7.40;99.90;;;;;;4917908;29;20701;-86
2022/12/31 07:21:58;;;;;;;19.37;10.43;;;7.40;99.90;;;;;;4915502;29;20241;-86
2022/12/31 07:24:41;;;;;;;20.33;10.57;;;7.50;99.90;;;;;;4934332;29;20206;-85
2022/12/31 07:27:33;;;;;;;19.33;10.73;;;7.50;99.90;;;;;;4918647;29;20238;-86
2022/12/31 07:30:14;;;;;;;18.77;10.40;;;7.60;99.90;;;;;;4919589;28;20289;-86
2022/12/31 07:33:00;;;;;;;18.07;10.77;;;7.60;99.90;;;;;;4937699;29;20660;-85
2022/12/31 07:35:50;;;;;;;17.77;10.83;;;7.60;99.90;;;;;;4937543;29;20225;-86
2022/12/31 07:38:55;;;;;;;19.57;10.47;;;7.60;99.90;;;;;;4922633;29;20332;-88
2022/12/31 07:41:54;;;;;;;19.03;9.70;;;7.60;99.90;;;;;;4942062;29;20612;-89
2022/12/31 07:44:32;;;;;;;20.63;9.60;;;7.70;99.90;;;;;;4937851;29;20199;-89
2022/12/31 07:47:02;;;;;;;17.63;9.33;;;7.80;99.90;;;;;;4993308;28;20228;-89
2022/12/31 07:49:32;;;;;;;18.20;9.43;;;7.80;99.90;;;;;;4996101;28;20602;-86
2022/12/31 07:51:59;;;;;;;18.63;10.03;;;7.90;99.90;;;;;;5000901;28;20201;-85
2022/12/31 07:54:26;;;;;;;16.37;8.83;;;7.90;99.90;;;;;;5041398;28;20216;-84
2022/12/31 07:56:54;;;;;;;15.10;8.67;;;7.90;99.90;;;;;;5048098;28;20258;-85
2022/12/31 07:59:30;;;;;;;18.73;9.93;;;7.90;99.90;;;;;;5045840;28;20208;-89
2022/12/31 08:02:28;;;;;;;16.93;9.23;;;8.00;99.90;;;;;;5054095;28;20667;-87
2022/12/31 08:05:22;;;;;;;15.70;8.70;;;8.00;99.90;;;;;;5073512;28;20232;-85
2022/12/31 08:08:42;;;;;;;15.67;9.27;;;8.10;99.90;;;;;;5040187;28;20210;-86
2022/12/31 08:11:36;;;;;;;14.80;8.47;;;8.10;99.90;;;;;;5056471;28;20192;-88
2022/12/31 08:14:10;;;;;;;15.00;8.63;;;8.20;99.90;;;;;;5067691;28;20583;-85
2022/12/31 08:16:39;;;;;;;15.50;8.23;;;8.20;99.90;;;;;;5071571;28;20200;-83
2022/12/31 08:19:19;;;;;;;15.47;8.87;;;8.30;99.90;;;;;;5055733;28;20205;-89
2022/12/31 08:22:02;;;;;;;15.50;8.40;;;8.30;99.90;;;;;;5073774;28;20530;-89
2022/12/31 08:24:34;;;;;;;16.03;8.37;;;8.30;99.90;;;;;;5055337;28;20661;-90
2022/12/31 08:27:33;;;;;;;14.67;8.43;;;8.30;99.90;;;;;;5055247;28;20197;-89
2022/12/31 08:30:16;;;;;;;15.10;8.53;;;8.40;99.90;;;;;;5038407;28;20252;-91
2022/12/31 08:32:57;;;;;;;16.10;8.83;;;8.40;99.90;;;;;;5055474;28;20221;-90
2022/12/31 08:35:55;;;;;;;13.50;8.23;;;8.50;99.90;;;;;;5073156;28;20606;-91
2022/12/31 08:38:33;;;;;;;15.27;7.80;;;8.50;99.90;;;;;;4991861;28;20228;-89
2022/12/31 08:41:18;;;;;;;14.80;8.10;;;8.60;99.90;;;;;;4992052;28;20208;-86
2022/12/31 08:43:49;;;;;;;13.70;7.77;;;8.60;99.90;;;;;;4991659;28;20227;-88
2022/12/31 08:46:35;;;;;;;14.47;7.80;;;8.60;99.90;;;;;;4991459;28;20301;-90
2022/12/31 08:49:21;;;;;;;15.93;8.17;;;8.60;99.90;;;;;;4975099;28;20195;-92
2022/12/31 08:52:19;;;;;;;14.97;7.80;;;8.70;99.90;;;;;;4992258;28;20192;-87
2022/12/31 08:54:50;;;;;;;14.70;7.80;;;8.70;99.90;;;;;;4991700;28;20308;-88
2022/12/31 08:57:37;;;;;;;14.50;7.87;;;8.70;99.90;;;;;;4992622;28;20235;-90
2022/12/31 09:00:22;;;;;;;15.83;8.57;;;8.80;99.90;;;;;;4975857;28;20227;-87
2022/12/31 09:02:59;;;;;;;14.80;7.43;;;8.90;99.90;;;;;;4975610;28;20681;-89
2022/12/31 09:05:47;;;;;;;12.00;7.33;;;8.90;99.90;;;;;;5000511;28;20204;-88
2022/12/31 09:08:23;;;;;;;13.30;7.63;;;9.00;99.90;;;;;;4976224;28;20589;-84
2022/12/31 09:11:28;;;;;;;11.80;7.23;;;9.00;99.90;;;;;;5007087;28;20204;-93
2022/12/31 09:14:46;;;;;;;13.47;7.27;;;9.20;99.90;;;;;;4928992;28;20316;-88
2022/12/31 09:17:38;;;;;;;12.80;6.67;;;9.20;99.90;;;;;;4985037;28;20204;-89
2022/12/31 09:20:23;;;;;;;12.03;6.70;;;9.30;99.90;;;;;;4953060;28;20647;-90
2022/12/31 09:22:53;;;;;;;12.70;6.73;;;9.40;99.90;;;;;;4971760;28;20206;-86
2022/12/31 09:25:25;;;;;;;12.47;6.80;;;9.50;99.90;;;;;;4970032;28;20201;-85
2022/12/31 09:28:10;;;;;;;11.50;6.40;;;9.50;99.90;;;;;;4954050;28;20264;-82
2022/12/31 09:30:57;;;;;;;12.57;6.10;;;9.50;99.90;;;;;;4972080;28;20225;-84
2022/12/31 09:34:14;;;;;;;12.80;5.97;;;9.60;99.90;;;;;;4971544;28;20665;-80
2022/12/31 09:36:51;;;;;;;12.57;6.23;;;9.60;99.90;;;;;;4902043;29;20227;-93
2022/12/31 09:39:38;;;;;;;9.97;6.37;;;9.60;99.90;;;;;;4878778;29;20224;-94
2022/12/31 09:42:31;;;;;;;11.67;6.37;;;9.60;99.90;;;;;;4880707;29;20288;-93
2022/12/31 09:45:26;;;;;;;12.93;7.10;;;9.60;99.90;;;;;;4882666;29;20200;-91
2022/12/31 09:48:58;;;;;;;11.83;6.20;;;9.70;99.90;;;;;;4883292;29;20208;-87
2022/12/31 09:52:01;;;;;;;11.23;6.10;;;9.80;99.90;;;;;;4926821;29;20202;-87
2022/12/31 09:54:33;;;;;;;10.57;5.83;;;9.80;99.90;;;;;;4936171;29;20202;-89
2022/12/31 09:57:21;;;;;;;9.80;5.60;;;9.80;99.90;;;;;;4929829;29;20619;-83
2022/12/31 10:00:03;;;;;;;10.50;5.80;;;9.80;99.90;;;;;;4935563;29;20246;-83
2022/12/31 10:03:12;;;;;;;10.00;5.73;;;9.80;99.90;;;;;;4937616;29;20274;-92
2022/12/31 10:05:55;;;;;;;9.83;6.27;;;9.90;99.90;;;;;;4932934;29;20199;-84
2022/12/31 10:08:55;;;;;;;10.40;6.20;;;10.00;99.90;;;;;;4929786;29;20265;-83
2022/12/31 10:11:50;;;;;;;10.70;6.00;;;10.00;99.90;;;;;;4916981;29;20198;-88
2022/12/31 10:14:37;;;;;;;9.87;6.03;;;10.00;99.90;;;;;;4979365;28;20200;-82
2022/12/31 10:17:37;;;;;;;10.03;5.60;;;10.00;99.90;;;;;;4974008;28;20210;-82
2022/12/31 10:20:22;;;;;;;11.37;5.50;;;10.00;99.90;;;;;;4974712;28;20196;-85
2022/12/31 10:23:17;;;;;;;10.87;6.07;;;10.10;99.90;;;;;;4964558;28;20228;-84
2022/12/31 10:26:04;;;;;;;10.80;5.77;;;10.10;99.90;;;;;;4973710;28;20213;-84
2022/12/31 10:28:58;;;;;;;10.00;5.60;;;10.10;99.90;;;;;;4986322;28;20200;-85
2022/12/31 10:31:39;;;;;;;10.97;5.73;;;10.20;99.90;;;;;;5005247;28;20228;-84
2022/12/31 10:34:19;;;;;;;10.70;6.00;;;10.20;99.90;;;;;;5031078;28;20633;-77
2022/12/31 10:37:07;;;;;;;11.17;6.10;;;10.20;99.90;;;;;;5022682;28;20222;-87
2022/12/31 10:40:00;;;;;;;11.27;6.00;;;10.30;99.90;;;;;;5018531;28;20552;-87
2022/12/31 10:42:50;;;;;;;11.80;5.73;;;10.30;99.90;;;;;;5035653;28;20219;-84
2022/12/31 10:45:44;;;;;;;10.27;5.70;;;10.50;99.90;;;;;;5034166;28;20203;-80
2022/12/31 10:48:20;;;;;;;11.30;5.80;;;10.60;99.90;;;;;;5035497;28;20183;-84
2022/12/31 10:51:17;;;;;;;10.60;6.00;;;10.60;99.90;;;;;;5043804;28;20656;-86
2022/12/31 10:54:09;;;;;;;9.37;5.63;;;10.70;99.90;;;;;;4970313;28;20200;-83
2022/12/31 10:57:05;;;;;;;10.53;5.60;;;10.80;99.90;;;;;;4962850;28;20242;-81
2022/12/31 10:59:38;;;;;;;10.77;5.80;;;10.90;99.90;;;;;;4974159;28;20197;-84
2022/12/31 11:02:20;;;;;;;9.03;5.43;;;10.90;99.90;;;;;;4973559;28;20565;-81
2022/12/31 11:05:32;;;;;;;10.17;5.43;;;11.10;99.90;;;;;;4957207;28;20201;-79
2022/12/31 11:08:02;;;;;;;8.87;5.27;;;11.10;99.90;;;;;;4947472;29;20198;-82
2022/12/31 11:11:08;;;;;;;9.13;5.33;;;11.10;99.90;;;;;;4972917;28;20198;-80
2022/12/31 11:14:14;;;;;;;9.73;5.70;;;11.20;99.90;;;;;;4954432;29;20207;-80
2022/12/31 11:16:45;;;;;;;8.97;5.27;;;11.30;99.90;;;;;;4957128;28;20259;-76
2022/12/31 11:19:47;;;;;;;8.87;4.70;;;11.30;99.90;;;;;;4967122;28;20301;-79
2022/12/31 11:22:37;;;;;;;8.23;4.83;;;11.30;99.90;;;;;;4871020;29;20205;-78
2022/12/31 11:25:10;;;;;;;8.33;5.13;;;11.30;99.90;;;;;;4893779;29;20590;-80
2022/12/31 11:27:49;;;;;;;6.97;4.27;;;11.30;99.90;;;;;;4877470;29;20240;-77
2022/12/31 11:30:39;;;;;;;10.07;5.13;;;11.30;99.90;;;;;;4904239;28;20312;-78
2022/12/31 11:33:35;;;;;;;7.93;4.70;;;11.30;99.90;;;;;;4967433;28;20217;-81
2022/12/31 11:36:36;;;;;;;9.13;4.97;;;11.40;99.90;;;;;;4957962;28;20328;-79
2022/12/31 11:39:27;;;;;;;9.17;5.30;;;11.40;99.90;;;;;;4973279;28;20225;-84
2022/12/31 11:42:23;;;;;;;9.40;4.90;;;11.40;99.90;;;;;;4973056;28;20221;-83
2022/12/31 11:45:12;;;;;;;8.30;4.70;;;11.30;99.90;;;;;;4972829;28;20236;-85
2022/12/31 11:48:14;;;;;;;7.50;4.60;;;11.40;99.90;;;;;;4973393;28;20190;-83
2022/12/31 11:51:31;;;;;;;8.23;5.07;;;11.50;99.90;;;;;;4956383;28;20205;-81
2022/12/31 11:54:37;;;;;;;7.80;4.70;;;11.80;99.90;;;;;;4973553;28;20227;-84
2022/12/31 11:57:28;;;;;;;9.13;4.83;;;12.10;99.90;;;;;;4972403;28;20226;-80
2022/12/31 12:00:17;;;;;;;7.20;4.53;;;12.20;99.90;;;;;;5023375;28;20218;-80
2022/12/31 12:02:52;;;;;;;7.30;4.23;;;12.30;99.90;;;;;;5048961;28;20253;-80
2022/12/31 12:05:22;;;;;;;8.57;4.60;;;12.30;99.90;;;;;;5016597;28;20195;-82
2022/12/31 12:07:51;;;;;;;6.93;4.23;;;12.30;99.90;;;;;;5029398;28;20287;-83
2022/12/31 12:10:27;;;;;;;7.60;4.40;;;12.20;99.90;;;;;;5013256;28;20196;-84
2022/12/31 12:13:18;;;;;;;6.60;4.20;;;12.20;99.90;;;;;;5012749;28;20199;-83
2022/12/31 12:15:55;;;;;;;6.87;4.40;;;12.10;99.90;;;;;;5012395;28;20644;-84
2022/12/31 12:18:25;;;;;;;7.87;4.23;;;12.10;99.90;;;;;;5013274;28;20506;-78
2022/12/31 12:20:59;;;;;;;7.63;4.33;;;12.10;99.90;;;;;;5013981;28;20194;-85
2022/12/31 12:23:27;;;;;;;8.07;4.23;;;12.20;99.90;;;;;;5014211;28;20202;-84
2022/12/31 12:25:54;;;;;;;7.17;4.40;;;12.20;99.90;;;;;;5029238;28;20719;-79
2022/12/31 12:28:26;;;;;;;7.07;4.43;;;12.10;99.90;;;;;;5050893;28;20257;-80
2022/12/31 12:31:03;;;;;;;6.63;4.03;;;12.20;99.90;;;;;;5048149;28;20223;-80
2022/12/31 12:33:41;;;;;;;6.77;4.30;;;12.20;99.90;;;;;;5031221;28;20195;-80
2022/12/31 12:36:14;;;;;;;8.80;4.80;;;12.20;99.90;;;;;;5049616;28;20306;-80
2022/12/31 12:38:42;;;;;;;9.27;4.90;;;12.10;99.90;;;;;;5061905;28;20232;-81
2022/12/31 12:41:17;;;;;;;7.47;4.63;;;12.00;99.90;;;;;;5074761;28;20202;-80
2022/12/31 12:43:45;;;;;;;7.67;4.40;;;12.00;99.90;;;;;;5075412;28;20282;-82
2022/12/31 12:46:26;;;;;;;8.20;4.60;;;11.90;99.90;;;;;;5058257;28;20225;-81
2022/12/31 12:48:56;;;;;;;7.50;4.57;;;11.70;99.90;;;;;;5056281;28;20229;-86
2022/12/31 12:51:25;;;;;;;8.30;4.30;;;11.70;99.90;;;;;;5071644;28;20198;-83
2022/12/31 12:54:20;;;;;;;7.97;4.80;;;11.60;99.90;;;;;;5042434;28;20226;-79
2022/12/31 12:56:59;;;;;;;7.70;4.40;;;11.60;99.90;;;;;;5060744;28;20229;-80
2022/12/31 13:00:12;;;;;;;7.63;4.73;;;11.60;99.90;;;;;;5039908;28;20222;-82
2022/12/31 13:03:24;;;;;;;8.20;4.67;;;11.70;99.90;;;;;;4979348;28;20193;-84
2022/12/31 13:06:19;;;;;;;7.07;4.20;;;11.70;99.90;;;;;;4964848;28;20993;-86
2022/12/31 13:09:01;;;;;;;8.70;4.33;;;11.70;99.90;;;;;;4944664;28;20821;-81
2022/12/31 13:11:33;;;;;;;7.33;4.53;;;11.70;99.90;;;;;;4968162;28;20664;-82
2022/12/31 13:14:31;;;;;;;7.13;4.20;;;11.60;99.90;;;;;;4950301;28;20194;-83
2022/12/31 13:17:31;;;;;;;7.03;4.20;;;11.70;99.90;;;;;;4958409;28;20394;-85
2022/12/31 13:20:08;;;;;;;6.60;4.40;;;11.70;99.90;;;;;;4954411;28;20204;-80
2022/12/31 13:22:51;;;;;;;7.57;4.47;;;11.70;99.90;;;;;;4968585;28;20205;-81
2022/12/31 13:25:45;;;;;;;8.00;4.40;;;11.80;99.90;;;;;;4958475;28;20229;-80
2022/12/31 13:28:15;;;;;;;9.57;4.53;;;11.80;99.90;;;;;;4974559;28;20661;-77
2022/12/31 13:30:49;;;;;;;6.27;4.03;;;11.80;99.90;;;;;;4954272;28;20221;-79
2022/12/31 13:33:56;;;;;;;7.53;4.20;;;11.80;99.90;;;;;;4969972;28;20198;-78
2022/12/31 13:36:40;;;;;;;7.47;4.40;;;11.80;99.90;;;;;;4942052;29;20241;-85
2022/12/31 13:39:35;;;;;;;8.43;4.20;;;11.80;99.90;;;;;;4950600;28;20281;-78
2022/12/31 13:42:09;;;;;;;7.50;4.60;;;12.00;99.90;;;;;;4985146;28;20192;-84
2022/12/31 13:44:50;;;;;;;6.93;4.20;;;11.90;99.90;;;;;;4998505;28;20197;-79
2022/12/31 13:47:31;;;;;;;8.77;4.60;;;11.90;99.90;;;;;;4994762;28;20242;-85
2022/12/31 13:50:20;;;;;;;7.17;4.27;;;12.10;99.90;;;;;;4991302;28;20174;-82